Terminal Aerodrome Forecast
Issued by NWS

Home | Current Version | Previous Version | Text Only | Print | Product List | Glossary On
Versions: 1 2 3 4 5 6 7 8 9 10 11 12 13 14 15 16 17 18 19 20
000
FTUS43 KGRR 302118 AAA
TAFLAN
TAF AMD
KLAN 302118Z 3021/3118 24007KT P6SM SCT060
     FM302145 24006KT 3SM -TSRA BKN025CB
      TEMPO 3022/3024 1SM TSRA
     FM310000 25004KT P6SM BKN100
     FM310800 33004KT 5SM BR VCSH BKN015
     FM311000 24003KT 3SM BR VCSH OVC009
     FM311500 34007KT 4SM BR OVC009=

USA.gov is the U.S. government's official web portal to all federal, state and local government web resources and services.